Latest Weather Observations for Camooweal

IDQ60801

Issued at 8:32 pm EST Monday 30 May 2016 (issued every 30 minutes, with the page automatically refreshed every 10 minutes)

About weather observations | Map of weather stations | Latest weather observations for QLD | Other Formats
Station Details ID: 037010 Name: CAMOOWEAL TOWNSHIP Lat: -19.92 Lon: 138.12 Height: 231.2 m
Data from the previous 72 hours. | See also: Recent months at Camooweal
Date/Time
EST
Temp
°C
App
Temp
°C
Dew
Point
Rel
Hum
%
Delta-T
°C
Wind Press
QNH
hPa
Press
MSL
hPa
Rain
since 9 am
mm
Dir
 
Spd
km/h
Gust
km/h
Spd
kts
Gust
kts
30/08:30pm 25.9 24.5 10.9 39 8.5 NNE 9 11 5 6 1016.7 1015.8 0.0
30/08:00pm 26.3 24.6 10.0 36 9.1 NNE 9 13 5 7 1016.4 1015.5 0.0
30/07:30pm 27.5 25.5 10.2 34 9.8 NNE 11 15 6 8 1015.9 1015.0 0.0
30/07:00pm 28.2 26.1 9.9 32 10.3 NNE 11 13 6 7 1015.7 1014.8 0.0
30/06:30pm 28.8 26.6 9.5 30 10.9 NE 11 13 6 7 1015.4 1014.5 0.0
30/06:00pm 30.3 28.4 9.2 27 11.9 NE 9 13 5 7 1014.9 1014.1 0.0
30/05:30pm 31.6 29.0 9.2 25 12.7 NNE 13 20 7 11 1014.7 1013.9 0.0
30/05:00pm 32.1 29.4 9.0 24 13.1 NE 13 20 7 11 1014.5 1013.7 0.0
30/04:30pm 32.5 29.5 9.3 24 13.2 NE 15 20 8 11 1014.3 1013.5 0.0
30/04:00pm 32.6 30.0 9.4 24 13.3 NE 13 20 7 11 1014.2 1013.4 0.0
30/03:30pm 32.4 29.6 9.9 25 13.0 NNE 15 22 8 12 1014.2 1013.4 0.0
30/03:00pm 32.5 29.7 9.9 25 13.0 NE 15 22 8 12 1014.3 1013.5 0.0
30/02:30pm 32.3 28.7 9.8 25 12.9 ENE 19 26 10 14 1014.5 1013.7 0.0
30/02:00pm 32.2 29.7 9.7 25 12.9 NE 13 26 7 14 1015.0 1014.2 0.0
30/01:30pm 32.1 29.2 9.6 25 12.9 NNE 15 20 8 11 1015.8 1014.9 0.0
30/01:00pm 31.3 28.2 8.9 25 12.6 ENE 15 22 8 12 1016.6 1015.7 0.0
30/12:30pm 30.9 27.9 9.2 26 12.3 NE 15 24 8 13 1017.2 1016.4 0.0
30/12:00pm 30.8 27.2 8.5 25 12.5 ENE 17 24 9 13 1017.7 1016.9 0.0
30/11:30am 30.0 26.8 8.4 26 12.0 ENE 15 26 8 14 1018.0 1017.2 0.0
30/11:00am 29.0 25.6 7.6 26 11.7 ENE 15 20 8 11 1018.5 1017.7 0.0
30/10:30am 27.9 24.3 6.6 26 11.4 ENE 15 22 8 12 1018.8 1018.0 0.0
30/10:00am 26.9 22.4 6.3 27 10.9 ENE 19 24 10 13 1019.0 1018.2 0.0
30/09:30am 26.0 22.0 6.6 29 10.2 E 17 22 9 12 1018.9 1018.1 0.0
30/09:00am 24.4 20.4 6.6 32 9.3 ENE 17 24 9 13 1018.6 1017.8 0.0
30/08:30am 22.2 19.2 7.6 39 7.7 E 13 17 7 9 1018.1 1017.3 0.0
30/08:00am 19.5 17.1 8.5 49 5.8 E 11 13 6 7 1018.0 1017.2 0.0
30/07:30am 19.0 16.2 8.4 50 5.5 E 13 17 7 9 1017.5 1016.7 0.0
30/07:00am 17.7 15.9 9.3 58 4.4 E 9 11 5 6 1017.2 1016.4 0.0
30/06:30am 16.9 15.0 9.1 60 4.1 E 9 11 5 6 1017.1 1016.3 0.0
30/06:00am 17.1 15.3 9.3 60 4.1 E 9 11 5 6 1016.9 1016.1 0.0
30/05:30am 17.1 15.3 9.3 60 4.1 E 9 11 5 6 1016.9 1016.1 0.0
30/05:00am 17.1 15.3 9.3 60 4.1 E 9 11 5 6 1016.8 1015.9 0.0
30/04:30am 16.3 14.9 8.8 61 3.9 ESE 6 7 3 4 1016.7 1015.8 0.0
30/04:00am 17.6 15.7 9.2 58 4.4 E 9 11 5 6 1016.6 1015.7 0.0
30/03:30am 17.2 15.2 8.6 57 4.5 E 9 11 5 6 1016.6 1015.7 0.0
30/03:00am 17.9 16.0 9.0 56 4.7 E 9 11 5 6 1016.7 1015.8 0.0
30/02:30am 18.0 16.5 9.1 56 4.7 ESE 7 9 4 5 1016.8 1015.9 0.0
30/02:00am 17.9 15.9 8.7 55 4.8 ESE 9 9 5 5 1017.0 1016.2 0.0
30/01:30am 18.6 17.0 8.8 53 5.2 ESE 7 9 4 5 1017.0 1016.2 0.0
30/01:00am 18.6 17.4 9.4 55 4.9 SE 6 11 3 6 1017.0 1016.2 0.0
30/12:30am 18.4 17.2 9.5 56 4.7 S 6 6 3 3 1017.1 1016.3 0.0
30/12:00am 18.2 16.5 8.2 52 5.2 S 7 9 4 5 1017.3 1016.5 0.0
 
Date/Time
EST
Temp
°C
App
Temp
°C
Dew
Point
Rel
Hum
%
Delta-T
°C
Wind Press
QNH
hPa
Press
MSL
hPa
Rain
since 9 am
mm
Dir
 
Spd
km/h
Gust
km/h
Spd
kts
Gust
kts
29/11:30pm 20.3 18.3 8.6 47 6.2 E 9 11 5 6 1017.4 1016.6 0.0
29/11:00pm 21.2 18.5 9.1 46 6.5 E 13 15 7 8 1017.6 1016.8 0.0
29/10:30pm 21.5 19.4 8.4 43 7.0 SE 9 13 5 7 1017.6 1016.8 0.0
29/10:00pm 22.0 19.9 8.2 41 7.3 SE 9 13 5 7 1017.6 1016.8 0.0
29/09:30pm 23.5 21.0 8.4 38 8.1 SSE 11 15 6 8 1017.5 1016.7 0.0
29/09:00pm 24.4 21.6 8.4 36 8.6 SSE 13 17 7 9 1017.2 1016.4 0.0
29/08:30pm 24.6 21.8 8.5 36 8.7 SSE 13 17 7 9 1017.1 1016.3 0.0
29/08:00pm 24.4 22.0 8.8 37 8.5 SSE 11 15 6 8 1016.7 1015.8 0.0
29/07:30pm 24.7 21.9 8.6 36 8.7 SSE 13 13 7 7 1016.5 1015.6 0.0
29/07:00pm 25.5 23.0 8.1 33 9.4 SSE 11 15 6 8 1016.2 1015.3 0.0
29/06:30pm 26.6 24.1 8.1 31 10.1 SSE 11 13 6 7 1015.9 1015.0 0.0
29/06:00pm 28.5 25.9 7.7 27 11.3 SSE 11 17 6 9 1015.6 1014.7 0.0
29/05:30pm 29.9 27.0 8.3 26 12.0 SSE 13 19 7 10 1015.3 1014.4 0.0
29/05:00pm 30.4 27.1 8.2 25 12.3 S 15 20 8 11 1015.0 1014.2 0.0
29/04:30pm 30.8 28.6 7.9 24 12.7 SE 9 15 5 8 1014.9 1014.1 0.0
29/04:00pm 30.9 28.7 8.0 24 12.7 S 9 15 5 8 1014.8 1014.0 0.0
29/03:30pm 30.5 27.9 7.7 24 12.6 S 11 19 6 10 1014.9 1014.1 0.0
29/03:00pm 30.5 27.5 7.7 24 12.6 SSE 13 20 7 11 1015.2 1014.3 0.0
29/02:30pm 31.0 28.5 8.1 24 12.7 S 11 20 6 11 1015.4 1014.5 0.0
29/02:00pm 30.4 28.0 7.0 23 12.7 SSW 9 15 5 8 1015.8 1014.9 0.0
29/01:30pm 29.5 26.7 6.8 24 12.3 SSE 11 17 6 9 1016.3 1015.4 0.0
29/01:00pm 29.5 27.1 6.8 24 12.2 S 9 17 5 9 1016.7 1015.8 0.0
29/12:30pm 28.7 26.2 6.7 25 11.8 SSW 9 17 5 9 1017.0 1016.2 0.0
29/12:00pm 28.2 26.0 6.3 25 11.6 ESE 7 13 4 7 1017.4 1016.6 0.0
29/11:30am 27.7 24.8 6.5 26 11.3 ESE 11 17 6 9 1017.6 1016.8 0.0
29/11:00am 27.5 25.4 6.8 27 11.0 ENE 7 11 4 6 1018.1 1017.3 0.0
29/10:30am 26.0 23.5 6.6 29 10.2 E 9 13 5 7 1018.4 1017.6 0.0
29/10:00am 24.4 21.1 6.2 31 9.4 ESE 13 19 7 10 1018.6 1017.8 0.0
29/09:30am 23.1 19.0 6.0 33 8.8 ESE 17 22 9 12 1018.4 1017.6 0.0
29/09:00am 21.3 18.0 6.4 38 7.6 ESE 13 19 7 10 1018.3 1017.5 0.0
29/08:30am 19.3 16.2 7.1 45 6.2 ESE 13 17 7 9 1017.9 1017.1 0.0
29/08:00am 15.8 14.2 8.8 63 3.6 SE 7 9 4 5 1017.7 1016.9 0.0
29/07:30am 13.5 11.3 7.7 68 2.9 S 9 11 5 6 1017.8 1017.0 0.0
29/07:00am 13.6 11.7 7.6 67 3.0 SSE 7 9 4 5 1017.4 1016.6 0.0
29/06:30am 13.6 11.8 7.8 68 2.9 S 7 9 4 5 1017.2 1016.4 0.0
29/06:00am 13.6 11.4 7.8 68 2.9 SSW 9 11 5 6 1017.1 1016.3 0.0
29/05:30am 13.9 12.1 8.1 68 2.9 SSW 7 9 4 5 1016.9 1016.1 0.0
29/05:00am 14.2 12.6 8.2 67 3.0 SSW 6 7 3 4 1016.7 1015.8 0.0
29/04:30am 14.4 13.2 7.9 65 3.3 SSW 4 6 2 3 1016.5 1015.6 0.0
29/04:00am 14.9 14.4 7.9 63 3.5 CALM 0 4 0 2 1016.3 1015.4 0.0
29/03:30am 15.4 13.6 7.9 61 3.8 SSW 7 9 4 5 1016.3 1015.4 0.0
29/03:00am 17.2 15.4 7.8 54 4.8 SSE 7 9 4 5 1016.2 1015.3 0.0
29/02:30am 17.3 15.4 7.6 53 4.9 SSE 7 9 4 5 1016.2 1015.3 0.0
29/02:00am 17.4 15.5 7.7 53 5.0 SSE 7 9 4 5 1016.3 1015.4 0.0
29/01:30am 17.8 16.0 8.1 53 5.0 SE 7 9 4 5 1016.3 1015.4 0.0
29/01:00am 17.9 16.0 7.6 51 5.3 SSE 7 9 4 5 1016.4 1015.5 0.0
29/12:30am 18.0 15.7 7.4 50 5.4 SSE 9 11 5 6 1016.8 1015.9 0.0
29/12:00am 19.2 16.9 7.6 47 6.0 SE 9 11 5 6 1016.9 1016.1 0.0
 
Date/Time
EST
Temp
°C
App
Temp
°C
Dew
Point
Rel
Hum
%
Delta-T
°C
Wind Press
QNH
hPa
Press
MSL
hPa
Rain
since 9 am
mm
Dir
 
Spd
km/h
Gust
km/h
Spd
kts
Gust
kts
28/11:30pm 19.5 16.8 7.3 45 6.3 SSE 11 13 6 7 1017.1 1016.3 0.0
28/11:00pm 20.0 17.2 7.1 43 6.6 S 11 15 6 8 1017.1 1016.3 0.0
28/10:30pm 21.1 17.9 7.0 40 7.3 SSE 13 17 7 9 1017.1 1016.3 0.0
28/10:00pm 21.5 18.3 7.0 39 7.5 SSE 13 17 7 9 1017.0 1016.2 0.0
28/09:30pm 22.1 18.5 6.7 37 8.0 SSE 15 20 8 11 1016.9 1016.1 0.0
28/09:00pm 22.5 18.9 6.7 36 8.2 S 15 20 8 11 1016.8 1015.9 0.0
28/08:30pm 22.8 19.6 7.0 36 8.2 S 13 17 7 9 1016.7 1015.8 0.0
28/08:00pm 23.0 19.4 6.7 35 8.5 S 15 19 8 10 1016.4 1015.5 0.0
28/07:30pm 22.8 19.5 6.6 35 8.4 S 13 17 7 9 1016.0 1015.1 0.0
28/07:00pm 23.6 20.7 6.4 33 8.9 S 11 13 6 7 1015.6 1014.7 0.0
28/06:30pm 24.8 22.2 6.1 30 9.7 SSE 9 11 5 6 1015.2 1014.3 0.0
28/06:00pm 26.7 23.4 6.2 27 10.8 SSE 13 17 7 9 1014.8 1014.0 0.0
28/05:30pm 27.8 24.8 6.0 25 11.5 SSE 11 15 6 8 1014.5 1013.7 0.0
28/05:00pm 28.0 25.0 6.2 25 11.6 SE 11 20 6 11 1014.4 1013.6 0.0
28/04:30pm 27.9 24.2 6.1 25 11.5 SE 15 24 8 13 1014.3 1013.5 0.0
28/04:00pm 28.4 24.2 5.9 24 11.9 SE 17 26 9 14 1014.5 1013.7 0.0
28/03:30pm 28.1 23.5 5.6 24 11.8 SSE 19 26 10 14 1014.7 1013.9 0.0
28/03:00pm 28.0 23.8 5.6 24 11.8 SE 17 26 9 14 1015.2 1014.3 0.0
28/02:30pm 27.4 23.8 5.1 24 11.6 SE 13 24 7 13 1015.5 1014.6 0.0
28/02:00pm 27.6 23.7 5.2 24 11.6 SE 15 24 8 13 1015.8 1014.9 0.0
28/01:30pm 26.5 21.7 4.9 25 11.1 SSE 19 26 10 14 1016.4 1015.5 0.0
28/01:00pm 26.3 22.0 5.3 26 10.8 SE 17 26 9 14 1017.0 1016.2 0.0
28/12:30pm 25.1 20.7 4.8 27 10.3 ESE 17 24 9 13 1017.6 1016.8 0.0
28/12:00pm 24.6 20.3 5.4 29 9.8 ESE 17 26 9 14 1018.2 1017.4 0.0
28/11:30am 24.0 19.2 5.4 30 9.5 SE 20 32 11 17 1018.7 1017.9 0.0
28/11:00am 22.8 17.6 5.7 33 8.7 SE 22 33 12 18 1019.2 1018.4 0.0
28/10:30am 22.9 17.6 6.6 35 8.4 SE 24 37 13 20 1019.6 1018.8 0.0
28/10:00am 21.7 16.3 6.4 37 7.8 SE 24 32 13 17 1019.8 1018.9 0.0
28/09:30am 20.8 16.1 7.8 43 6.8 SE 22 32 12 17 1019.6 1018.8 0.0
28/09:00am 19.3 14.8 8.6 50 5.6 SSE 22 32 12 17 1019.5 1018.7 0.0
28/08:30am 18.3 14.2 8.0 51 5.3 SSE 19 26 10 14 1019.2 1018.4 0.0
28/08:00am 17.1 14.6 8.3 56 4.5 S 11 15 6 8 1018.8 1018.0 0.0
28/07:30am 16.2 13.7 8.2 59 4.1 S 11 15 6 8 1018.4 1017.6 0.0
28/07:00am 16.1 14.0 8.1 59 4.1 S 9 11 5 6 1018.0 1017.2 0.0
28/06:30am 16.9 14.4 8.3 57 4.4 S 11 15 6 8 1017.8 1017.0 0.0
28/06:00am 17.3 14.8 8.4 56 4.6 SSE 11 17 6 9 1017.4 1016.6 0.0
28/05:30am 17.8 15.0 8.6 55 4.8 SSE 13 17 7 9 1017.2 1016.4 0.0
28/05:00am 18.2 15.2 9.3 56 4.7 SSE 15 20 8 11 1016.9 1016.1 0.0
28/04:30am 18.5 15.3 9.8 57 4.7 S 17 24 9 13 1016.6 1015.7 0.0
28/04:00am 19.1 15.4 10.1 56 4.9 S 20 26 11 14 1016.3 1015.4 0.0
28/03:30am 19.4 15.8 10.7 57 4.8 S 20 26 11 14 1016.3 1015.4 0.0
28/03:00am 19.8 16.5 10.8 56 4.9 S 19 26 10 14 1016.5 1015.6 0.0
28/02:30am 20.6 17.4 11.2 55 5.2 S 19 24 10 13 1016.5 1015.6 0.0
28/02:00am 21.0 17.8 11.1 53 5.5 SSE 19 24 10 13 1016.6 1015.7 0.0
28/01:30am 21.4 18.0 11.1 52 5.7 SSE 20 32 11 17 1016.4 1015.5 0.0
28/01:00am 21.2 17.0 11.0 52 5.7 SSE 24 33 13 18 1016.4 1015.5 0.0
28/12:30am 21.3 17.0 10.8 51 5.8 S 24 30 13 16 1016.5 1015.6 0.0
28/12:00am 21.9 18.0 10.7 49 6.2 SSE 22 32 12 17 1016.7 1015.8 0.0
 
Date/Time
EST
Temp
°C
App
Temp
°C
Dew
Point
Rel
Hum
%
Delta-T
°C
Wind Press
QNH
hPa
Press
MSL
hPa
Rain
since 9 am
mm
Dir
 
Spd
km/h
Gust
km/h
Spd
kts
Gust
kts
27/11:30pm 22.4 17.8 11.2 49 6.3 SSE 26 35 14 19 1016.7 1015.8 0.0
27/11:00pm 23.0 17.8 11.7 49 6.4 SSE 30 41 16 22 1016.6 1015.7 0.0
27/10:30pm 23.2 19.8 12.5 51 6.2 SSE 22 30 12 16 1016.5 1015.6 0.0
27/10:00pm 23.8 20.0 12.4 48 6.6 SSE 24 33 13 18 1016.2 1015.3 0.0
27/09:30pm 24.2 19.9 12.2 47 6.9 SSE 26 35 14 19 1016.0 1015.1 0.0
27/09:00pm 24.6 20.3 12.2 46 7.2 S 26 39 14 21 1015.7 1014.8 0.0

Other Formats:

Comma delimited format used in spreadsheet applications
http://www.bom.gov.au/fwo/IDQ60801/IDQ60801.94255.axf

JavaScript Object Notation format (JSON) in row-major order
http://www.bom.gov.au/fwo/IDQ60801/IDQ60801.94255.json